Radar

Controlla il traffico aereo

Map and data supplied by Flightradar24.com

[Source: ADDS]
METAR
LIPY 172250Z 29010KT CAVOK 07/M09 Q1014 =
TAF
LIPY 171700Z 1718/1818 32018G30KT 9999 SCT040 BECMG 1722/1724 24015KT =
SR / SS: 06:35 / 16:00 UTC (Effemeridi 2018-01-18)

Abbiamo 24 visitatori e nessun utente online

 Quelli che il drone

   Strada della Marina, 1A

     60019 Senigallia AN, Italia

  Telefono: (+39) 338/6041090